createdAt,value
2018-06-12T00:01:12.821Z,3.93
2018-06-12T00:06:16.034Z,3.30
2018-06-12T00:11:19.791Z,3.30
2018-06-12T00:16:22.876Z,3.70
2018-06-12T00:21:25.970Z,3.00
2018-06-12T00:26:29.094Z,3.50
2018-06-12T00:31:32.108Z,4.13
2018-06-12T00:36:35.283Z,5.33
2018-06-12T00:41:38.928Z,4.87
2018-06-12T00:46:42.307Z,3.87
2018-06-12T00:51:45.430Z,4.70
2018-06-12T00:57:00.068Z,4.77
2018-06-12T01:02:03.913Z,3.80
2018-06-12T01:07:07.046Z,4.80
2018-06-12T01:12:10.786Z,6.00
2018-06-12T01:17:14.140Z,5.20
2018-06-12T01:22:17.104Z,4.20
2018-06-12T01:27:20.492Z,5.10
2018-06-12T01:32:23.330Z,6.07
2018-06-12T01:37:26.435Z,5.80
2018-06-12T01:42:29.640Z,5.60
2018-06-12T01:47:33.429Z,6.53
2018-06-12T01:52:36.624Z,4.50
2018-06-12T01:57:39.845Z,4.53
2018-06-12T02:02:42.909Z,4.17
2018-06-12T02:07:45.977Z,4.57
2018-06-12T02:12:49.708Z,3.67
2018-06-12T02:17:53.342Z,5.17
2018-06-12T02:22:56.532Z,4.33
2018-06-12T02:27:59.887Z,3.70
2018-06-12T02:33:02.973Z,3.53
2018-06-12T02:38:06.349Z,4.03
2018-06-12T02:43:10.128Z,4.50
2018-06-12T02:48:13.236Z,3.80
2018-06-12T02:53:16.996Z,4.50
2018-06-12T02:58:20.306Z,4.40
2018-06-12T03:03:23.207Z,4.43
2018-06-12T03:08:26.243Z,3.67
2018-06-12T03:13:29.628Z,3.70
2018-06-12T03:18:33.537Z,4.37
2018-06-12T03:23:37.123Z,5.33
2018-06-12T03:28:40.252Z,4.53
2018-06-12T03:33:43.272Z,4.03
2018-06-12T03:38:46.422Z,4.00
2018-06-12T03:43:49.819Z,4.20
2018-06-12T03:48:52.748Z,4.80
2018-06-12T03:53:56.113Z,4.00
2018-06-12T03:58:59.270Z,3.50
2018-06-12T04:04:02.236Z,3.40
2018-06-12T04:09:11.988Z,5.40
2018-06-12T04:14:15.352Z,3.43
2018-06-12T04:19:18.668Z,3.97
2018-06-12T04:24:21.552Z,4.50
2018-06-12T04:29:24.798Z,3.93
2018-06-12T04:34:27.697Z,3.50
2018-06-12T04:39:30.729Z,4.43
2018-06-12T04:44:34.266Z,3.93
2018-06-12T04:49:37.167Z,4.53
2018-06-12T04:54:40.658Z,3.77
2018-06-12T04:59:44.615Z,4.10
2018-06-12T05:04:47.865Z,2.57
2018-06-12T05:09:50.989Z,3.33
2018-06-12T05:14:54.116Z,3.93
2018-06-12T05:19:57.161Z,3.00
2018-06-12T05:25:00.456Z,3.60
2018-06-12T05:30:04.292Z,3.83
2018-06-12T05:35:07.462Z,3.40
2018-06-12T05:40:10.440Z,3.30
2018-06-12T05:45:13.527Z,3.47
2018-06-12T05:50:16.393Z,3.20
2018-06-12T05:55:19.798Z,2.63
2018-06-12T06:00:23.744Z,3.30
2018-06-12T06:05:28.052Z,3.00
2018-06-12T06:10:31.326Z,4.30
2018-06-12T06:15:35.497Z,2.80
2018-06-12T06:20:38.551Z,2.57
2018-06-12T06:25:41.689Z,2.77
2018-06-12T06:30:44.758Z,2.47
2018-06-12T06:35:47.647Z,2.80
2018-06-12T06:40:50.548Z,3.30
2018-06-12T06:45:54.501Z,2.57
2018-06-12T06:50:57.435Z,2.80
2018-06-12T06:56:00.308Z,2.90
2018-06-12T07:01:03.189Z,3.53
2018-06-12T07:06:06.327Z,4.50
2018-06-12T07:11:09.196Z,3.47
2018-06-12T07:16:12.237Z,3.33
2018-06-12T07:21:22.016Z,3.37
2018-06-12T07:26:24.891Z,3.50
2018-06-12T07:31:27.795Z,3.40
2018-06-12T07:36:30.951Z,3.70
2018-06-12T07:41:33.894Z,3.40
2018-06-12T07:46:37.026Z,3.37
2018-06-12T07:51:39.915Z,3.10
2018-06-12T07:56:42.777Z,2.80
2018-06-12T08:01:45.691Z,3.47
2018-06-12T08:06:49.003Z,3.10
2018-06-12T08:11:51.895Z,2.40
2018-06-12T08:16:55.297Z,2.10
2018-06-12T08:21:58.170Z,4.57
2018-06-12T08:27:01.113Z,2.93
2018-06-12T08:32:04.111Z,2.97
2018-06-12T08:37:07.300Z,3.73
2018-06-12T08:42:10.161Z,2.90
2018-06-12T08:47:13.455Z,3.93
2018-06-12T08:52:17.812Z,3.33
2018-06-12T08:57:20.929Z,2.90
2018-06-12T09:02:23.930Z,3.47
2018-06-12T09:07:26.822Z,3.93
2018-06-12T09:12:32.163Z,3.40
2018-06-12T09:17:35.324Z,3.50
2018-06-12T09:22:38.295Z,3.83
2018-06-12T09:27:46.812Z,3.40
2018-06-12T09:32:49.952Z,3.33
2018-06-12T09:37:52.974Z,3.00
2018-06-12T09:42:55.879Z,3.73
2018-06-12T09:47:59.252Z,3.03
2018-06-12T09:53:02.474Z,3.37
2018-06-12T09:58:05.390Z,2.60
2018-06-12T10:03:08.340Z,2.40
2018-06-12T10:08:11.208Z,2.93
2018-06-12T10:13:14.170Z,2.73
2018-06-12T10:18:17.368Z,3.20
2018-06-12T10:23:20.833Z,4.10
2018-06-12T10:28:23.731Z,2.07
2018-06-12T10:33:26.648Z,3.43
2018-06-12T10:38:29.553Z,3.50
2018-06-12T10:43:32.428Z,3.53
2018-06-12T10:48:35.541Z,3.50
2018-06-12T10:53:38.441Z,3.10
2018-06-12T10:58:41.390Z,4.40
2018-06-12T11:03:44.381Z,3.70
2018-06-12T11:08:47.409Z,3.53
2018-06-12T11:13:50.555Z,3.53
2018-06-12T11:18:53.536Z,3.80
2018-06-12T11:23:56.421Z,3.77
2018-06-12T11:28:59.624Z,3.63
2018-06-12T11:34:02.583Z,3.60
2018-06-12T11:39:07.072Z,4.00
2018-06-12T11:44:10.056Z,3.60
2018-06-12T11:49:13.044Z,3.03
2018-06-12T11:54:16.104Z,3.37
2018-06-12T11:59:19.416Z,3.77
2018-06-12T12:04:22.367Z,3.20
2018-06-12T12:09:25.243Z,3.60
2018-06-12T12:14:28.105Z,3.67
2018-06-12T12:19:31.317Z,3.93
2018-06-12T12:24:34.185Z,3.90
2018-06-12T12:29:37.369Z,3.90
2018-06-12T12:34:40.289Z,3.23
2018-06-12T12:39:43.201Z,4.03
2018-06-12T12:44:46.220Z,3.37
2018-06-12T12:49:49.219Z,3.73
2018-06-12T12:54:52.207Z,3.70
2018-06-12T12:59:55.637Z,4.03
2018-06-12T13:04:58.586Z,3.03
2018-06-12T13:10:01.497Z,3.23
2018-06-12T13:15:05.030Z,3.10
2018-06-12T13:20:08.715Z,3.13
2018-06-12T13:25:11.614Z,2.70
2018-06-12T13:30:15.317Z,3.47
2018-06-12T13:35:18.787Z,3.20
2018-06-12T13:40:21.676Z,3.60
2018-06-12T13:45:24.530Z,3.33
2018-06-12T13:50:27.616Z,3.17
2018-06-12T13:55:30.553Z,4.10
2018-06-12T14:00:33.546Z,3.73
2018-06-12T14:05:37.170Z,4.80
2018-06-12T14:10:40.074Z,3.40
2018-06-12T14:15:42.956Z,4.50
2018-06-12T14:20:46.167Z,4.00
2018-06-12T14:25:49.155Z,3.90
2018-06-12T14:30:52.093Z,5.67
2018-06-12T14:35:55.300Z,6.20
2018-06-12T14:40:58.208Z,6.17
2018-06-12T14:46:01.110Z,5.00
2018-06-12T14:51:04.239Z,5.40
2018-06-12T14:56:07.162Z,5.50
2018-06-12T15:01:10.163Z,6.37
2018-06-12T15:06:13.441Z,6.47
2018-06-12T15:11:16.400Z,5.90
2018-06-12T15:16:19.312Z,6.87
2018-06-12T15:21:22.618Z,5.70
2018-06-12T15:32:02.240Z,6.60
2018-06-12T15:37:05.604Z,8.50
2018-06-12T15:42:08.946Z,7.10
2018-06-12T15:47:11.964Z,6.47
2018-06-12T15:52:15.121Z,6.90
2018-06-12T15:57:18.249Z,5.13
2018-06-12T16:02:21.511Z,5.40
2018-06-12T16:07:24.511Z,6.10
2018-06-12T16:12:27.373Z,4.80
2018-06-12T16:17:30.369Z,6.03
2018-06-12T16:22:34.076Z,6.80
2018-06-12T16:27:37.211Z,6.13
2018-06-12T16:32:40.201Z,6.33
2018-06-12T16:37:43.098Z,6.60
2018-06-12T16:42:46.182Z,5.13
2018-06-12T16:47:49.182Z,5.93
2018-06-12T16:52:52.600Z,6.03
2018-06-12T16:57:55.720Z,5.30
2018-06-12T17:02:58.798Z,5.47
2018-06-12T17:08:01.956Z,5.80
2018-06-12T17:13:05.089Z,6.13
2018-06-12T17:18:08.324Z,6.33
2018-06-12T17:23:11.842Z,4.90
2018-06-12T17:28:15.488Z,5.60
2018-06-12T17:33:18.851Z,6.30
2018-06-12T17:38:22.298Z,5.47
2018-06-12T17:43:25.563Z,7.07
2018-06-12T17:48:28.908Z,5.10
2018-06-12T17:53:32.206Z,6.80
2018-06-12T17:58:35.783Z,4.90
2018-06-12T18:03:39.038Z,5.70
2018-06-12T18:08:42.594Z,6.40
2018-06-12T18:13:46.952Z,5.17
2018-06-12T18:18:50.209Z,6.10
2018-06-12T18:23:53.829Z,5.87
2018-06-12T18:28:57.414Z,6.23
2018-06-12T18:34:00.692Z,6.63
2018-06-12T18:39:05.597Z,5.50
2018-06-12T18:44:08.951Z,6.47
2018-06-12T18:49:12.337Z,6.60
2018-06-12T18:54:15.659Z,5.90
2018-06-12T18:59:18.950Z,5.57
2018-06-12T19:04:22.588Z,7.13
2018-06-12T19:09:26.033Z,6.23
2018-06-12T19:14:29.381Z,8.20
2018-06-12T19:19:32.720Z,9.93
2018-06-12T19:24:37.078Z,7.97
2018-06-12T19:29:40.624Z,5.90
2018-06-12T19:34:44.579Z,6.73
2018-06-12T19:39:47.915Z,8.63
2018-06-12T19:44:51.196Z,9.00
2018-06-12T19:49:54.739Z,7.83
2018-06-12T19:54:58.393Z,8.33
2018-06-12T20:00:01.705Z,9.20
2018-06-12T20:05:05.478Z,8.50
2018-06-12T20:10:08.715Z,8.70
2018-06-12T20:15:12.024Z,7.70
2018-06-12T20:20:15.264Z,7.60
2018-06-12T20:25:19.122Z,7.57
2018-06-12T20:30:26.129Z,8.00
2018-06-12T20:35:29.971Z,9.93
2018-06-12T20:40:33.133Z,7.47
2018-06-12T20:45:36.436Z,7.50
2018-06-12T20:50:39.741Z,7.80
2018-06-12T20:55:43.260Z,7.77
2018-06-12T21:00:46.645Z,7.77
2018-06-12T21:05:49.878Z,8.27
2018-06-12T21:10:53.373Z,9.13
2018-06-12T21:15:57.875Z,8.30
2018-06-12T21:21:01.255Z,8.87
2018-06-12T21:26:04.561Z,8.70
2018-06-12T21:31:07.953Z,8.13
2018-06-12T21:36:11.279Z,8.67
2018-06-12T21:41:14.542Z,8.73
2018-06-12T21:46:17.410Z,7.57
2018-06-12T21:51:20.568Z,7.90
2018-06-12T21:56:23.709Z,7.00
2018-06-12T22:01:26.574Z,6.13
2018-06-12T22:06:29.428Z,6.50
2018-06-12T22:11:33.002Z,7.13
2018-06-12T22:16:35.878Z,7.27
2018-06-12T22:21:38.809Z,7.73
2018-06-12T22:26:42.373Z,6.87
2018-06-12T22:31:45.753Z,5.70
2018-06-12T22:36:48.623Z,6.10
2018-06-12T22:41:51.808Z,6.13
2018-06-12T22:46:54.931Z,5.63
2018-06-12T22:52:00.637Z,6.73
2018-06-12T22:57:03.868Z,5.13
2018-06-12T23:02:07.718Z,7.47
2018-06-12T23:07:11.022Z,6.30
2018-06-12T23:12:14.110Z,5.70
2018-06-12T23:17:17.147Z,5.80
2018-06-12T23:22:20.229Z,4.97
2018-06-12T23:27:23.247Z,7.30
2018-06-12T23:32:26.301Z,4.97
2018-06-12T23:37:29.359Z,6.13
2018-06-12T23:42:32.491Z,4.50
2018-06-12T23:47:36.624Z,5.03
2018-06-12T23:52:39.769Z,5.50
2018-06-12T23:57:43.116Z,5.53
